sensor_id;sensor_type;location;lat;lon;timestamp;P1;durP1;ratioP1;P2;durP2;ratioP2
59093;SDS011;44880;52.814;18.270;2023-09-19T00:01:18;24.80;;;18.90;;
59093;SDS011;44880;52.814;18.270;2023-09-19T00:03:50;25.00;;;19.90;;
59093;SDS011;44880;52.814;18.270;2023-09-19T00:06:22;26.00;;;20.40;;
59093;SDS011;44880;52.814;18.270;2023-09-19T00:08:54;23.30;;;18.60;;
59093;SDS011;44880;52.814;18.270;2023-09-19T00:11:27;25.90;;;16.90;;
59093;SDS011;44880;52.814;18.270;2023-09-19T00:13:59;21.40;;;15.90;;
59093;SDS011;44880;52.814;18.270;2023-09-19T00:19:01;21.90;;;16.00;;
59093;SDS011;44880;52.814;18.270;2023-09-19T00:21:37;24.00;;;18.70;;
59093;SDS011;44880;52.814;18.270;2023-09-19T00:24:10;26.80;;;18.70;;
59093;SDS011;44880;52.814;18.270;2023-09-19T00:26:42;24.20;;;18.90;;
59093;SDS011;44880;52.814;18.270;2023-09-19T00:29:14;24.90;;;19.80;;
59093;SDS011;44880;52.814;18.270;2023-09-19T00:31:47;25.20;;;20.00;;
59093;SDS011;44880;52.814;18.270;2023-09-19T00:34:19;25.10;;;19.50;;
59093;SDS011;44880;52.814;18.270;2023-09-19T00:36:52;24.00;;;19.20;;
59093;SDS011;44880;52.814;18.270;2023-09-19T00:41:54;24.20;;;18.50;;
59093;SDS011;44880;52.814;18.270;2023-09-19T00:46:57;21.40;;;15.90;;
59093;SDS011;44880;52.814;18.270;2023-09-19T00:49:30;20.10;;;14.20;;
59093;SDS011;44880;52.814;18.270;2023-09-19T00:54:34;20.40;;;15.90;;
59093;SDS011;44880;52.814;18.270;2023-09-19T00:59:37;19.80;;;16.00;;
59093;SDS011;44880;52.814;18.270;2023-09-19T01:04:40;20.20;;;13.80;;
59093;SDS011;44880;52.814;18.270;2023-09-19T01:07:12;19.70;;;13.40;;
59093;SDS011;44880;52.814;18.270;2023-09-19T01:09:45;18.40;;;14.50;;
59093;SDS011;44880;52.814;18.270;2023-09-19T01:14:49;20.20;;;14.70;;
59093;SDS011;44880;52.814;18.270;2023-09-19T01:17:27;19.00;;;15.00;;
59093;SDS011;44880;52.814;18.270;2023-09-19T01:20:07;18.80;;;13.60;;
59093;SDS011;44880;52.814;18.270;2023-09-19T01:22:48;18.30;;;11.70;;
59093;SDS011;44880;52.814;18.270;2023-09-19T01:25:33;17.00;;;12.10;;
59093;SDS011;44880;52.814;18.270;2023-09-19T01:28:38;20.10;;;13.30;;
59093;SDS011;44880;52.814;18.270;2023-09-19T01:31:15;18.00;;;14.00;;
59093;SDS011;44880;52.814;18.270;2023-09-19T01:33:59;19.90;;;13.90;;
59093;SDS011;44880;52.814;18.270;2023-09-19T01:36:33;17.70;;;13.50;;
59093;SDS011;44880;52.814;18.270;2023-09-19T01:39:07;20.50;;;13.10;;
59093;SDS011;44880;52.814;18.270;2023-09-19T01:41:44;17.30;;;11.30;;
59093;SDS011;44880;52.814;18.270;2023-09-19T01:44:24;15.80;;;10.90;;
59093;SDS011;44880;52.814;18.270;2023-09-19T01:47:00;16.60;;;10.10;;
59093;SDS011;44880;52.814;18.270;2023-09-19T01:49:37;19.90;;;12.00;;
59093;SDS011;44880;52.814;18.270;2023-09-19T01:52:14;15.40;;;11.10;;
59093;SDS011;44880;52.814;18.270;2023-09-19T01:54:50;16.90;;;10.60;;
59093;SDS011;44880;52.814;18.270;2023-09-19T01:57:26;16.60;;;9.80;;
59093;SDS011;44880;52.814;18.270;2023-09-19T02:00:02;11.90;;;7.80;;
59093;SDS011;44880;52.814;18.270;2023-09-19T02:02:43;11.40;;;7.30;;
59093;SDS011;44880;52.814;18.270;2023-09-19T02:05:23;13.00;;;6.60;;
59093;SDS011;44880;52.814;18.270;2023-09-19T02:07:56;12.80;;;6.60;;
59093;SDS011;44880;52.814;18.270;2023-09-19T02:10:28;12.70;;;7.30;;
59093;SDS011;44880;52.814;18.270;2023-09-19T02:15:32;12.60;;;7.30;;
59093;SDS011;44880;52.814;18.270;2023-09-19T02:18:06;11.80;;;6.20;;
59093;SDS011;44880;52.814;18.270;2023-09-19T02:20:38;11.50;;;6.20;;
59093;SDS011;44880;52.814;18.270;2023-09-19T02:23:11;12.40;;;6.00;;
59093;SDS011;44880;52.814;18.270;2023-09-19T02:25:51;11.80;;;5.60;;
59093;SDS011;44880;52.814;18.270;2023-09-19T02:28:23;11.60;;;6.90;;
59093;SDS011;44880;52.814;18.270;2023-09-19T02:30:58;13.70;;;7.00;;
59093;SDS011;44880;52.814;18.270;2023-09-19T02:33:30;11.00;;;6.70;;
59093;SDS011;44880;52.814;18.270;2023-09-19T02:36:02;13.00;;;7.40;;
59093;SDS011;44880;52.814;18.270;2023-09-19T02:38:35;12.10;;;6.20;;
59093;SDS011;44880;52.814;18.270;2023-09-19T02:41:07;11.90;;;5.80;;
59093;SDS011;44880;52.814;18.270;2023-09-19T02:43:39;10.90;;;5.40;;
59093;SDS011;44880;52.814;18.270;2023-09-19T02:46:12;12.90;;;5.40;;
59093;SDS011;44880;52.814;18.270;2023-09-19T02:48:45;12.10;;;6.40;;
59093;SDS011;44880;52.814;18.270;2023-09-19T02:51:17;14.60;;;6.10;;
59093;SDS011;44880;52.814;18.270;2023-09-19T02:53:48;13.10;;;6.50;;
59093;SDS011;44880;52.814;18.270;2023-09-19T02:56:20;12.20;;;5.70;;
59093;SDS011;44880;52.814;18.270;2023-09-19T02:58:54;9.80;;;5.10;;
59093;SDS011;44880;52.814;18.270;2023-09-19T03:01:26;10.50;;;4.70;;
59093;SDS011;44880;52.814;18.270;2023-09-19T03:03:58;8.80;;;4.70;;
59093;SDS011;44880;52.814;18.270;2023-09-19T03:06:31;10.70;;;4.70;;
59093;SDS011;44880;52.814;18.270;2023-09-19T03:09:03;11.90;;;5.50;;
59093;SDS011;44880;52.814;18.270;2023-09-19T03:11:40;12.50;;;5.20;;
59093;SDS011;44880;52.814;18.270;2023-09-19T03:14:12;10.20;;;5.00;;
59093;SDS011;44880;52.814;18.270;2023-09-19T03:16:44;13.10;;;5.40;;
59093;SDS011;44880;52.814;18.270;2023-09-19T03:19:17;11.60;;;4.60;;
59093;SDS011;44880;52.814;18.270;2023-09-19T03:21:49;12.50;;;5.20;;
59093;SDS011;44880;52.814;18.270;2023-09-19T03:24:22;12.30;;;5.50;;
59093;SDS011;44880;52.814;18.270;2023-09-19T03:26:54;12.10;;;5.70;;
59093;SDS011;44880;52.814;18.270;2023-09-19T03:29:27;12.00;;;5.00;;
59093;SDS011;44880;52.814;18.270;2023-09-19T03:31:59;9.10;;;4.60;;
59093;SDS011;44880;52.814;18.270;2023-09-19T03:34:32;9.80;;;4.10;;
59093;SDS011;44880;52.814;18.270;2023-09-19T03:37:04;9.60;;;3.60;;
59093;SDS011;44880;52.814;18.270;2023-09-19T03:39:37;9.20;;;4.50;;
59093;SDS011;44880;52.814;18.270;2023-09-19T03:42:09;9.50;;;3.70;;
59093;SDS011;44880;52.814;18.270;2023-09-19T03:44:41;8.50;;;3.50;;
59093;SDS011;44880;52.814;18.270;2023-09-19T03:49:44;11.70;;;3.40;;
59093;SDS011;44880;52.814;18.270;2023-09-19T03:54:46;10.80;;;3.80;;
59093;SDS011;44880;52.814;18.270;2023-09-19T03:57:18;10.20;;;4.40;;
59093;SDS011;44880;52.814;18.270;2023-09-19T03:59:50;11.10;;;4.40;;
59093;SDS011;44880;52.814;18.270;2023-09-19T04:02:22;10.90;;;4.60;;
59093;SDS011;44880;52.814;18.270;2023-09-19T04:07:24;10.40;;;4.20;;
59093;SDS011;44880;52.814;18.270;2023-09-19T04:09:57;10.40;;;4.30;;
59093;SDS011;44880;52.814;18.270;2023-09-19T04:12:29;12.80;;;5.30;;
59093;SDS011;44880;52.814;18.270;2023-09-19T04:15:01;11.70;;;5.20;;
59093;SDS011;44880;52.814;18.270;2023-09-19T04:17:34;12.20;;;5.20;;
59093;SDS011;44880;52.814;18.270;2023-09-19T04:20:07;12.60;;;5.10;;
59093;SDS011;44880;52.814;18.270;2023-09-19T04:22:41;10.90;;;4.40;;
59093;SDS011;44880;52.814;18.270;2023-09-19T04:25:13;10.80;;;4.60;;
59093;SDS011;44880;52.814;18.270;2023-09-19T04:27:45;11.20;;;5.20;;
59093;SDS011;44880;52.814;18.270;2023-09-19T04:30:17;12.10;;;4.70;;
59093;SDS011;44880;52.814;18.270;2023-09-19T04:32:49;10.80;;;4.00;;
59093;SDS011;44880;52.814;18.270;2023-09-19T04:35:21;10.90;;;4.10;;
59093;SDS011;44880;52.814;18.270;2023-09-19T04:37:53;10.10;;;4.00;;
59093;SDS011;44880;52.814;18.270;2023-09-19T04:40:25;9.00;;;4.20;;
59093;SDS011;44880;52.814;18.270;2023-09-19T04:42:58;9.50;;;3.70;;
59093;SDS011;44880;52.814;18.270;2023-09-19T04:45:29;9.20;;;3.60;;
59093;SDS011;44880;52.814;18.270;2023-09-19T04:48:01;10.30;;;4.50;;
59093;SDS011;44880;52.814;18.270;2023-09-19T04:50:34;10.30;;;5.20;;
59093;SDS011;44880;52.814;18.270;2023-09-19T04:53:07;9.60;;;4.30;;
59093;SDS011;44880;52.814;18.270;2023-09-19T04:55:38;8.10;;;3.70;;
59093;SDS011;44880;52.814;18.270;2023-09-19T05:00:40;9.50;;;3.90;;
59093;SDS011;44880;52.814;18.270;2023-09-19T05:05:42;9.90;;;3.60;;
59093;SDS011;44880;52.814;18.270;2023-09-19T05:08:14;10.60;;;4.00;;
59093;SDS011;44880;52.814;18.270;2023-09-19T05:10:45;11.10;;;4.40;;
59093;SDS011;44880;52.814;18.270;2023-09-19T05:13:17;9.50;;;3.90;;
59093;SDS011;44880;52.814;18.270;2023-09-19T05:15:49;10.30;;;3.90;;
59093;SDS011;44880;52.814;18.270;2023-09-19T05:18:21;9.30;;;4.00;;
59093;SDS011;44880;52.814;18.270;2023-09-19T05:20:53;10.90;;;3.70;;
59093;SDS011;44880;52.814;18.270;2023-09-19T05:23:25;9.10;;;3.90;;
59093;SDS011;44880;52.814;18.270;2023-09-19T05:25:56;8.60;;;3.60;;
59093;SDS011;44880;52.814;18.270;2023-09-19T05:28:28;9.60;;;3.90;;
59093;SDS011;44880;52.814;18.270;2023-09-19T05:31:02;10.10;;;4.40;;
59093;SDS011;44880;52.814;18.270;2023-09-19T05:33:36;10.30;;;4.30;;
59093;SDS011;44880;52.814;18.270;2023-09-19T05:38:40;9.40;;;4.40;;
59093;SDS011;44880;52.814;18.270;2023-09-19T05:41:13;9.10;;;4.10;;
59093;SDS011;44880;52.814;18.270;2023-09-19T05:43:46;11.10;;;4.40;;
59093;SDS011;44880;52.814;18.270;2023-09-19T05:46:20;8.40;;;4.40;;
59093;SDS011;44880;52.814;18.270;2023-09-19T05:48:52;9.70;;;4.70;;
59093;SDS011;44880;52.814;18.270;2023-09-19T05:51:25;11.60;;;4.80;;
59093;SDS011;44880;52.814;18.270;2023-09-19T05:53:57;10.00;;;4.60;;
59093;SDS011;44880;52.814;18.270;2023-09-19T05:58:59;9.10;;;4.10;;
59093;SDS011;44880;52.814;18.270;2023-09-19T06:01:32;10.10;;;4.40;;
59093;SDS011;44880;52.814;18.270;2023-09-19T06:04:05;9.90;;;4.60;;
59093;SDS011;44880;52.814;18.270;2023-09-19T06:06:36;10.70;;;5.30;;
59093;SDS011;44880;52.814;18.270;2023-09-19T06:09:08;12.20;;;6.30;;
59093;SDS011;44880;52.814;18.270;2023-09-19T06:14:10;11.70;;;5.80;;
59093;SDS011;44880;52.814;18.270;2023-09-19T06:16:42;12.60;;;5.70;;
59093;SDS011;44880;52.814;18.270;2023-09-19T06:19:15;10.20;;;4.60;;
59093;SDS011;44880;52.814;18.270;2023-09-19T06:21:51;8.50;;;4.10;;
59093;SDS011;44880;52.814;18.270;2023-09-19T06:24:23;9.10;;;4.10;;
59093;SDS011;44880;52.814;18.270;2023-09-19T06:26:58;11.40;;;5.10;;
59093;SDS011;44880;52.814;18.270;2023-09-19T06:29:32;11.30;;;5.40;;
59093;SDS011;44880;52.814;18.270;2023-09-19T06:32:08;13.80;;;5.70;;
59093;SDS011;44880;52.814;18.270;2023-09-19T06:34:40;12.70;;;6.00;;
59093;SDS011;44880;52.814;18.270;2023-09-19T06:37:14;10.20;;;5.40;;
59093;SDS011;44880;52.814;18.270;2023-09-19T06:39:49;9.20;;;4.30;;
59093;SDS011;44880;52.814;18.270;2023-09-19T06:44:51;10.20;;;4.70;;
59093;SDS011;44880;52.814;18.270;2023-09-19T06:47:26;12.20;;;6.00;;
59093;SDS011;44880;52.814;18.270;2023-09-19T06:49:58;12.10;;;5.70;;
59093;SDS011;44880;52.814;18.270;2023-09-19T06:52:31;12.90;;;6.50;;
59093;SDS011;44880;52.814;18.270;2023-09-19T06:55:07;10.20;;;5.10;;
59093;SDS011;44880;52.814;18.270;2023-09-19T06:57:42;10.00;;;4.60;;
59093;SDS011;44880;52.814;18.270;2023-09-19T07:02:54;11.00;;;4.50;;
59093;SDS011;44880;52.814;18.270;2023-09-19T07:05:32;11.40;;;5.50;;
59093;SDS011;44880;52.814;18.270;2023-09-19T07:08:06;12.70;;;5.90;;
59093;SDS011;44880;52.814;18.270;2023-09-19T07:10:52;10.80;;;5.30;;
59093;SDS011;44880;52.814;18.270;2023-09-19T07:13:25;12.00;;;5.10;;
59093;SDS011;44880;52.814;18.270;2023-09-19T07:15:58;9.20;;;4.40;;
59093;SDS011;44880;52.814;18.270;2023-09-19T07:18:32;8.70;;;4.80;;
59093;SDS011;44880;52.814;18.270;2023-09-19T07:21:14;11.30;;;6.10;;
59093;SDS011;44880;52.814;18.270;2023-09-19T07:23:46;10.20;;;5.10;;
59093;SDS011;44880;52.814;18.270;2023-09-19T07:26:18;9.70;;;4.00;;
59093;SDS011;44880;52.814;18.270;2023-09-19T07:28:54;9.30;;;4.50;;
59093;SDS011;44880;52.814;18.270;2023-09-19T07:31:26;9.80;;;4.50;;
59093;SDS011;44880;52.814;18.270;2023-09-19T07:33:59;8.70;;;4.30;;
59093;SDS011;44880;52.814;18.270;2023-09-19T07:36:33;10.10;;;4.50;;
59093;SDS011;44880;52.814;18.270;2023-09-19T07:39:36;11.20;;;4.90;;
59093;SDS011;44880;52.814;18.270;2023-09-19T07:42:09;9.20;;;4.90;;
59093;SDS011;44880;52.814;18.270;2023-09-19T07:44:50;13.50;;;4.70;;
59093;SDS011;44880;52.814;18.270;2023-09-19T07:47:22;9.70;;;4.40;;
59093;SDS011;44880;52.814;18.270;2023-09-19T07:49:54;9.30;;;4.30;;
59093;SDS011;44880;52.814;18.270;2023-09-19T07:52:33;7.70;;;3.90;;
59093;SDS011;44880;52.814;18.270;2023-09-19T07:55:08;9.50;;;4.70;;
59093;SDS011;44880;52.814;18.270;2023-09-19T07:57:44;9.50;;;4.80;;
59093;SDS011;44880;52.814;18.270;2023-09-19T08:00:27;10.00;;;4.90;;
59093;SDS011;44880;52.814;18.270;2023-09-19T08:03:03;8.30;;;4.50;;
59093;SDS011;44880;52.814;18.270;2023-09-19T08:05:37;8.20;;;4.30;;
59093;SDS011;44880;52.814;18.270;2023-09-19T08:08:12;9.60;;;4.50;;
59093;SDS011;44880;52.814;18.270;2023-09-19T08:10:53;9.90;;;4.80;;
59093;SDS011;44880;52.814;18.270;2023-09-19T08:13:25;9.50;;;4.80;;
59093;SDS011;44880;52.814;18.270;2023-09-19T08:16:00;9.80;;;4.60;;
59093;SDS011;44880;52.814;18.270;2023-09-19T08:18:38;10.30;;;4.60;;
59093;SDS011;44880;52.814;18.270;2023-09-19T08:21:11;9.90;;;4.20;;
59093;SDS011;44880;52.814;18.270;2023-09-19T08:23:44;10.10;;;4.80;;
59093;SDS011;44880;52.814;18.270;2023-09-19T08:28:57;9.60;;;4.80;;
59093;SDS011;44880;52.814;18.270;2023-09-19T08:31:33;10.20;;;4.80;;
59093;SDS011;44880;52.814;18.270;2023-09-19T08:34:07;8.50;;;4.60;;
59093;SDS011;44880;52.814;18.270;2023-09-19T08:36:44;8.00;;;4.60;;
59093;SDS011;44880;52.814;18.270;2023-09-19T08:39:16;8.20;;;5.00;;
59093;SDS011;44880;52.814;18.270;2023-09-19T08:41:48;8.80;;;4.70;;
59093;SDS011;44880;52.814;18.270;2023-09-19T08:44:27;8.80;;;4.40;;
59093;SDS011;44880;52.814;18.270;2023-09-19T08:47:02;7.80;;;4.10;;
59093;SDS011;44880;52.814;18.270;2023-09-19T08:49:41;8.60;;;4.20;;
59093;SDS011;44880;52.814;18.270;2023-09-19T08:52:21;8.70;;;4.30;;
59093;SDS011;44880;52.814;18.270;2023-09-19T08:55:04;10.10;;;3.80;;
59093;SDS011;44880;52.814;18.270;2023-09-19T08:57:40;9.30;;;3.90;;
59093;SDS011;44880;52.814;18.270;2023-09-19T09:00:22;7.50;;;3.30;;
59093;SDS011;44880;52.814;18.270;2023-09-19T09:02:56;8.50;;;3.40;;
59093;SDS011;44880;52.814;18.270;2023-09-19T09:05:29;7.00;;;2.80;;
59093;SDS011;44880;52.814;18.270;2023-09-19T09:08:02;7.00;;;3.00;;
59093;SDS011;44880;52.814;18.270;2023-09-19T09:10:52;8.10;;;3.00;;
59093;SDS011;44880;52.814;18.270;2023-09-19T09:16:14;7.60;;;3.00;;
59093;SDS011;44880;52.814;18.270;2023-09-19T09:18:47;6.60;;;2.70;;
59093;SDS011;44880;52.814;18.270;2023-09-19T09:21:33;8.00;;;3.00;;
59093;SDS011;44880;52.814;18.270;2023-09-19T09:24:27;7.30;;;2.90;;
59093;SDS011;44880;52.814;18.270;2023-09-19T09:27:02;7.50;;;2.70;;
59093;SDS011;44880;52.814;18.270;2023-09-19T09:30:00;8.40;;;2.60;;
59093;SDS011;44880;52.814;18.270;2023-09-19T09:32:35;6.80;;;2.70;;
59093;SDS011;44880;52.814;18.270;2023-09-19T09:35:27;7.20;;;2.80;;
59093;SDS011;44880;52.814;18.270;2023-09-19T09:38:00;8.10;;;2.70;;
59093;SDS011;44880;52.814;18.270;2023-09-19T09:43:36;7.60;;;2.70;;
59093;SDS011;44880;52.814;18.270;2023-09-19T09:46:17;8.20;;;3.50;;
59093;SDS011;44880;52.814;18.270;2023-09-19T09:49:24;8.80;;;3.10;;
59093;SDS011;44880;52.814;18.270;2023-09-19T09:52:18;7.40;;;2.60;;
59093;SDS011;44880;52.814;18.270;2023-09-19T09:55:02;7.80;;;2.60;;
59093;SDS011;44880;52.814;18.270;2023-09-19T09:57:38;9.70;;;2.70;;
59093;SDS011;44880;52.814;18.270;2023-09-19T10:00:24;8.30;;;3.20;;
59093;SDS011;44880;52.814;18.270;2023-09-19T10:03:16;7.60;;;2.60;;
59093;SDS011;44880;52.814;18.270;2023-09-19T10:06:11;11.50;;;3.00;;
59093;SDS011;44880;52.814;18.270;2023-09-19T10:12:03;7.00;;;2.70;;
59093;SDS011;44880;52.814;18.270;2023-09-19T10:14:48;7.60;;;2.70;;
59093;SDS011;44880;52.814;18.270;2023-09-19T10:17:22;7.00;;;2.80;;
59093;SDS011;44880;52.814;18.270;2023-09-19T10:19:57;8.30;;;3.10;;
59093;SDS011;44880;52.814;18.270;2023-09-19T10:23:07;7.70;;;2.90;;
59093;SDS011;44880;52.814;18.270;2023-09-19T10:25:44;8.80;;;2.50;;
59093;SDS011;44880;52.814;18.270;2023-09-19T10:28:33;8.30;;;2.50;;
59093;SDS011;44880;52.814;18.270;2023-09-19T10:31:06;6.90;;;2.30;;
59093;SDS011;44880;52.814;18.270;2023-09-19T10:34:07;6.90;;;2.20;;
59093;SDS011;44880;52.814;18.270;2023-09-19T10:36:39;6.60;;;1.90;;
59093;SDS011;44880;52.814;18.270;2023-09-19T10:39:39;7.80;;;2.00;;
59093;SDS011;44880;52.814;18.270;2023-09-19T10:42:12;6.90;;;1.80;;
59093;SDS011;44880;52.814;18.270;2023-09-19T10:47:44;8.30;;;1.90;;
59093;SDS011;44880;52.814;18.270;2023-09-19T10:50:29;7.10;;;2.20;;
59093;SDS011;44880;52.814;18.270;2023-09-19T10:53:18;7.10;;;2.40;;
59093;SDS011;44880;52.814;18.270;2023-09-19T10:55:51;7.30;;;2.20;;
59093;SDS011;44880;52.814;18.270;2023-09-19T10:58:53;6.40;;;1.90;;
59093;SDS011;44880;52.814;18.270;2023-09-19T11:01:47;6.80;;;2.20;;
59093;SDS011;44880;52.814;18.270;2023-09-19T11:04:36;6.70;;;2.20;;
59093;SDS011;44880;52.814;18.270;2023-09-19T11:07:09;7.80;;;2.10;;
59093;SDS011;44880;52.814;18.270;2023-09-19T11:10:25;7.70;;;2.00;;
59093;SDS011;44880;52.814;18.270;2023-09-19T11:13:40;7.30;;;2.10;;
59093;SDS011;44880;52.814;18.270;2023-09-19T11:16:24;8.50;;;2.30;;
59093;SDS011;44880;52.814;18.270;2023-09-19T11:19:20;7.10;;;2.30;;
59093;SDS011;44880;52.814;18.270;2023-09-19T11:21:55;7.70;;;2.30;;
59093;SDS011;44880;52.814;18.270;2023-09-19T11:24:38;7.40;;;2.30;;
59093;SDS011;44880;52.814;18.270;2023-09-19T11:27:11;7.70;;;2.30;;
59093;SDS011;44880;52.814;18.270;2023-09-19T11:29:47;7.30;;;2.40;;
59093;SDS011;44880;52.814;18.270;2023-09-19T11:36:09;7.50;;;2.00;;
59093;SDS011;44880;52.814;18.270;2023-09-19T11:39:01;6.10;;;1.80;;
59093;SDS011;44880;52.814;18.270;2023-09-19T11:41:50;8.00;;;2.20;;
59093;SDS011;44880;52.814;18.270;2023-09-19T11:47:25;5.60;;;2.60;;
59093;SDS011;44880;52.814;18.270;2023-09-19T11:49:57;7.00;;;2.50;;
59093;SDS011;44880;52.814;18.270;2023-09-19T11:53:08;6.50;;;2.10;;
59093;SDS011;44880;52.814;18.270;2023-09-19T11:55:42;7.90;;;2.30;;
59093;SDS011;44880;52.814;18.270;2023-09-19T11:58:52;7.20;;;1.90;;
59093;SDS011;44880;52.814;18.270;2023-09-19T12:07:43;7.70;;;2.50;;
59093;SDS011;44880;52.814;18.270;2023-09-19T12:13:18;6.50;;;2.10;;
59093;SDS011;44880;52.814;18.270;2023-09-19T12:15:50;7.50;;;1.80;;
59093;SDS011;44880;52.814;18.270;2023-09-19T12:18:43;7.40;;;2.00;;
59093;SDS011;44880;52.814;18.270;2023-09-19T12:21:22;8.80;;;1.90;;
59093;SDS011;44880;52.814;18.270;2023-09-19T12:26:50;6.60;;;1.80;;
59093;SDS011;44880;52.814;18.270;2023-09-19T12:29:28;6.40;;;1.90;;
59093;SDS011;44880;52.814;18.270;2023-09-19T12:32:35;7.80;;;1.90;;
59093;SDS011;44880;52.814;18.270;2023-09-19T12:35:26;6.40;;;2.20;;
59093;SDS011;44880;52.814;18.270;2023-09-19T12:38:08;9.10;;;2.50;;
59093;SDS011;44880;52.814;18.270;2023-09-19T12:43:47;7.50;;;2.10;;
59093;SDS011;44880;52.814;18.270;2023-09-19T12:46:34;6.70;;;2.40;;
59093;SDS011;44880;52.814;18.270;2023-09-19T12:49:18;8.00;;;2.60;;
59093;SDS011;44880;52.814;18.270;2023-09-19T12:51:51;6.30;;;1.80;;
59093;SDS011;44880;52.814;18.270;2023-09-19T12:54:57;7.40;;;1.90;;
59093;SDS011;44880;52.814;18.270;2023-09-19T12:57:29;8.50;;;2.80;;
59093;SDS011;44880;52.814;18.270;2023-09-19T13:00:04;8.40;;;2.00;;
59093;SDS011;44880;52.814;18.270;2023-09-19T13:06:04;7.20;;;2.00;;
59093;SDS011;44880;52.814;18.270;2023-09-19T13:08:39;6.30;;;1.80;;
59093;SDS011;44880;52.814;18.270;2023-09-19T13:11:13;6.40;;;1.80;;
59093;SDS011;44880;52.814;18.270;2023-09-19T13:19:44;6.50;;;1.80;;
59093;SDS011;44880;52.814;18.270;2023-09-19T13:22:41;7.70;;;2.00;;
59093;SDS011;44880;52.814;18.270;2023-09-19T13:25:24;7.90;;;2.20;;
59093;SDS011;44880;52.814;18.270;2023-09-19T13:27:58;7.50;;;2.20;;
59093;SDS011;44880;52.814;18.270;2023-09-19T13:30:48;7.20;;;1.90;;
59093;SDS011;44880;52.814;18.270;2023-09-19T13:33:20;7.30;;;2.30;;
59093;SDS011;44880;52.814;18.270;2023-09-19T13:38:41;7.70;;;2.20;;
59093;SDS011;44880;52.814;18.270;2023-09-19T13:41:13;8.40;;;2.20;;
59093;SDS011;44880;52.814;18.270;2023-09-19T13:43:48;8.90;;;2.40;;
59093;SDS011;44880;52.814;18.270;2023-09-19T13:46:42;7.80;;;2.40;;
59093;SDS011;44880;52.814;18.270;2023-09-19T13:49:14;7.60;;;2.50;;
59093;SDS011;44880;52.814;18.270;2023-09-19T13:51:49;9.30;;;2.70;;
59093;SDS011;44880;52.814;18.270;2023-09-19T13:54:38;7.80;;;2.40;;
59093;SDS011;44880;52.814;18.270;2023-09-19T13:57:10;7.40;;;2.20;;
59093;SDS011;44880;52.814;18.270;2023-09-19T13:59:56;9.60;;;3.00;;
59093;SDS011;44880;52.814;18.270;2023-09-19T14:02:43;6.30;;;2.20;;
59093;SDS011;44880;52.814;18.270;2023-09-19T14:05:23;8.00;;;2.50;;
59093;SDS011;44880;52.814;18.270;2023-09-19T14:08:03;8.50;;;2.60;;
59093;SDS011;44880;52.814;18.270;2023-09-19T14:10:35;8.70;;;2.90;;
59093;SDS011;44880;52.814;18.270;2023-09-19T14:13:10;9.20;;;2.90;;
59093;SDS011;44880;52.814;18.270;2023-09-19T14:15:50;8.20;;;2.80;;
59093;SDS011;44880;52.814;18.270;2023-09-19T14:18:22;6.80;;;2.90;;
59093;SDS011;44880;52.814;18.270;2023-09-19T14:20:54;7.80;;;2.80;;
59093;SDS011;44880;52.814;18.270;2023-09-19T14:23:45;8.40;;;3.00;;
59093;SDS011;44880;52.814;18.270;2023-09-19T14:26:17;7.80;;;3.10;;
59093;SDS011;44880;52.814;18.270;2023-09-19T14:28:56;9.00;;;3.30;;
59093;SDS011;44880;52.814;18.270;2023-09-19T14:31:44;9.20;;;3.10;;
59093;SDS011;44880;52.814;18.270;2023-09-19T14:34:16;8.10;;;2.70;;
59093;SDS011;44880;52.814;18.270;2023-09-19T14:36:48;9.10;;;3.20;;
59093;SDS011;44880;52.814;18.270;2023-09-19T14:39:21;8.80;;;3.10;;
59093;SDS011;44880;52.814;18.270;2023-09-19T14:41:56;8.70;;;3.00;;
59093;SDS011;44880;52.814;18.270;2023-09-19T14:44:28;8.70;;;3.20;;
59093;SDS011;44880;52.814;18.270;2023-09-19T14:47:04;8.30;;;3.00;;
59093;SDS011;44880;52.814;18.270;2023-09-19T14:49:47;7.90;;;2.90;;
59093;SDS011;44880;52.814;18.270;2023-09-19T14:52:19;7.80;;;2.90;;
59093;SDS011;44880;52.814;18.270;2023-09-19T14:54:50;7.10;;;2.60;;
59093;SDS011;44880;52.814;18.270;2023-09-19T14:57:30;7.70;;;2.70;;
59093;SDS011;44880;52.814;18.270;2023-09-19T15:00:02;8.10;;;2.70;;
59093;SDS011;44880;52.814;18.270;2023-09-19T15:02:45;8.20;;;2.90;;
59093;SDS011;44880;52.814;18.270;2023-09-19T15:05:36;9.60;;;2.80;;
59093;SDS011;44880;52.814;18.270;2023-09-19T15:08:09;9.00;;;2.80;;
59093;SDS011;44880;52.814;18.270;2023-09-19T15:11:03;7.30;;;2.70;;
59093;SDS011;44880;52.814;18.270;2023-09-19T15:13:35;8.80;;;2.80;;
59093;SDS011;44880;52.814;18.270;2023-09-19T15:16:11;8.20;;;3.10;;
59093;SDS011;44880;52.814;18.270;2023-09-19T15:18:56;8.40;;;3.40;;
59093;SDS011;44880;52.814;18.270;2023-09-19T15:21:29;8.30;;;3.30;;
59093;SDS011;44880;52.814;18.270;2023-09-19T15:24:05;9.60;;;3.30;;
59093;SDS011;44880;52.814;18.270;2023-09-19T15:26:53;9.00;;;3.40;;
59093;SDS011;44880;52.814;18.270;2023-09-19T15:29:27;9.10;;;3.60;;
59093;SDS011;44880;52.814;18.270;2023-09-19T15:32:00;8.50;;;3.70;;
59093;SDS011;44880;52.814;18.270;2023-09-19T15:37:13;8.20;;;3.30;;
59093;SDS011;44880;52.814;18.270;2023-09-19T15:39:46;8.60;;;3.20;;
59093;SDS011;44880;52.814;18.270;2023-09-19T15:42:37;8.70;;;3.50;;
59093;SDS011;44880;52.814;18.270;2023-09-19T15:45:11;8.40;;;3.10;;
59093;SDS011;44880;52.814;18.270;2023-09-19T15:47:44;8.00;;;3.20;;
59093;SDS011;44880;52.814;18.270;2023-09-19T15:50:18;8.50;;;3.50;;
59093;SDS011;44880;52.814;18.270;2023-09-19T15:52:57;8.20;;;3.40;;
59093;SDS011;44880;52.814;18.270;2023-09-19T15:55:30;7.70;;;3.00;;
59093;SDS011;44880;52.814;18.270;2023-09-19T15:58:32;9.20;;;3.40;;
59093;SDS011;44880;52.814;18.270;2023-09-19T16:01:08;8.80;;;3.60;;
59093;SDS011;44880;52.814;18.270;2023-09-19T16:03:44;8.00;;;3.60;;
59093;SDS011;44880;52.814;18.270;2023-09-19T16:06:28;8.60;;;4.00;;
59093;SDS011;44880;52.814;18.270;2023-09-19T16:09:01;8.60;;;4.00;;
59093;SDS011;44880;52.814;18.270;2023-09-19T16:11:37;9.40;;;3.90;;
59093;SDS011;44880;52.814;18.270;2023-09-19T16:14:19;9.10;;;3.90;;
59093;SDS011;44880;52.814;18.270;2023-09-19T16:16:53;9.10;;;3.70;;
59093;SDS011;44880;52.814;18.270;2023-09-19T16:19:42;8.60;;;3.90;;
59093;SDS011;44880;52.814;18.270;2023-09-19T16:26:59;9.60;;;4.10;;
59093;SDS011;44880;52.814;18.270;2023-09-19T16:29:42;11.40;;;4.00;;
59093;SDS011;44880;52.814;18.270;2023-09-19T16:32:18;11.90;;;4.10;;
59093;SDS011;44880;52.814;18.270;2023-09-19T16:34:50;11.20;;;4.70;;
59093;SDS011;44880;52.814;18.270;2023-09-19T16:37:31;8.80;;;3.90;;
59093;SDS011;44880;52.814;18.270;2023-09-19T16:40:11;9.90;;;4.10;;
59093;SDS011;44880;52.814;18.270;2023-09-19T16:42:45;9.80;;;4.00;;
59093;SDS011;44880;52.814;18.270;2023-09-19T16:45:19;9.80;;;4.50;;
59093;SDS011;44880;52.814;18.270;2023-09-19T16:47:55;10.80;;;4.80;;
59093;SDS011;44880;52.814;18.270;2023-09-19T16:50:30;9.40;;;4.30;;
59093;SDS011;44880;52.814;18.270;2023-09-19T16:53:13;10.00;;;4.00;;
59093;SDS011;44880;52.814;18.270;2023-09-19T16:55:45;10.00;;;4.00;;
59093;SDS011;44880;52.814;18.270;2023-09-19T16:58:18;9.70;;;4.40;;
59093;SDS011;44880;52.814;18.270;2023-09-19T17:00:52;11.30;;;4.90;;
59093;SDS011;44880;52.814;18.270;2023-09-19T17:03:29;10.20;;;4.60;;
59093;SDS011;44880;52.814;18.270;2023-09-19T17:06:05;10.50;;;4.70;;
59093;SDS011;44880;52.814;18.270;2023-09-19T17:08:42;9.80;;;5.00;;